Time;durP1;ratioP1;P1;durP2;ratioP2;P2;SDS_P1;SDS_P2;PMS_P1;PMS_P2;Temp;Humidity;BMP_temperature;BMP_pressure;BME280_temperature;BME280_humidity;BME280_pressure;Samples;Min_cycle;Max_cycle;Signal;HPM_P1;HPM_P2
2023/09/18 00:00:53;;;;;;;45.20;33.40;;;19.00;99.90;;;;;;5060203;28;39473;-74
2023/09/18 00:03:20;;;;;;;45.35;33.78;;;19.00;99.90;;;;;;5042662;28;36716;-75
2023/09/18 00:05:50;;;;;;;42.50;32.50;;;19.10;99.90;;;;;;5063489;28;37646;-75
2023/09/18 00:08:17;;;;;;;39.13;28.85;;;19.00;99.90;;;;;;5055684;28;39070;-74
2023/09/18 00:10:48;;;;;;;40.40;29.80;;;19.00;99.90;;;;;;5064434;28;38357;-74
2023/09/18 00:13:14;;;;;;;40.55;31.08;;;19.00;99.90;;;;;;5065436;28;37828;-74
2023/09/18 00:15:41;;;;;;;37.50;30.50;;;19.00;99.90;;;;;;5046844;28;36656;-74
2023/09/18 00:18:07;;;;;;;35.60;29.42;;;19.00;99.90;;;;;;5061618;28;39220;-75
2023/09/18 00:20:35;;;;;;;35.22;28.85;;;19.00;99.90;;;;;;5063488;28;38222;-74
2023/09/18 00:23:01;;;;;;;39.40;28.35;;;19.00;99.90;;;;;;5064245;28;38299;-75
2023/09/18 00:25:27;;;;;;;34.67;27.95;;;19.10;99.90;;;;;;5062615;28;47142;-75
2023/09/18 00:27:53;;;;;;;31.02;26.08;;;19.10;99.90;;;;;;5059987;28;37957;-74
2023/09/18 00:30:19;;;;;;;38.40;29.20;;;19.10;99.90;;;;;;5037669;28;38691;-74
2023/09/18 00:32:46;;;;;;;34.33;28.52;;;19.10;99.90;;;;;;5038143;28;37019;-74
2023/09/18 00:35:13;;;;;;;36.25;27.48;;;19.10;99.90;;;;;;5038693;28;35193;-75
2023/09/18 00:37:39;;;;;;;30.05;25.52;;;19.10;99.90;;;;;;5054425;28;40669;-74
2023/09/18 00:40:07;;;;;;;30.42;26.17;;;19.10;99.90;;;;;;5042757;28;38517;-75
2023/09/18 00:42:33;;;;;;;34.70;28.08;;;19.20;99.90;;;;;;5053369;28;38863;-74
2023/09/18 00:44:59;;;;;;;34.17;27.77;;;19.20;99.90;;;;;;5045638;28;36327;-74
2023/09/18 00:47:25;;;;;;;31.60;25.30;;;19.20;99.90;;;;;;5049485;28;39022;-74
2023/09/18 00:49:52;;;;;;;32.38;26.92;;;19.20;99.90;;;;;;5045033;28;39200;-73
2023/09/18 00:52:20;;;;;;;32.13;25.50;;;19.30;99.90;;;;;;5053354;28;37964;-74
2023/09/18 00:54:47;;;;;;;29.58;26.33;;;19.30;99.90;;;;;;5034099;28;37279;-74
2023/09/18 00:57:14;;;;;;;27.63;23.02;;;19.30;99.90;;;;;;5045122;28;38713;-74
2023/09/18 00:59:41;;;;;;;29.45;25.58;;;19.20;99.90;;;;;;5057930;28;39470;-74
2023/09/18 01:02:08;;;;;;;35.25;27.92;;;19.20;99.90;;;;;;5403458;22;38530;-76
2023/09/18 01:04:34;;;;;;;28.95;25.40;;;19.20;99.90;;;;;;5012262;28;35329;-75
2023/09/18 01:07:04;;;;;;;28.70;24.60;;;19.30;99.90;;;;;;5028724;28;38703;-75
2023/09/18 01:09:32;;;;;;;37.67;24.13;;;19.30;99.90;;;;;;5045938;28;47877;-76
2023/09/18 01:12:05;;;;;;;26.00;23.10;;;19.30;99.90;;;;;;5030540;28;36975;-76
2023/09/18 01:14:40;;;;;;;25.65;22.58;;;19.30;99.90;;;;;;5040090;28;48794;-76
2023/09/18 01:17:10;;;;;;;29.42;23.92;;;19.30;99.90;;;;;;5026438;28;38914;-76
2023/09/18 01:19:39;;;;;;;27.30;22.77;;;19.30;99.90;;;;;;5025703;28;37440;-76
2023/09/18 01:22:07;;;;;;;26.58;23.10;;;19.30;99.90;;;;;;5039905;28;39167;-77
2023/09/18 01:24:35;;;;;;;28.10;23.00;;;19.30;99.90;;;;;;5030768;28;37752;-77
2023/09/18 01:27:01;;;;;;;24.85;20.95;;;19.30;99.90;;;;;;5031885;28;38704;-76
2023/09/18 01:29:27;;;;;;;26.92;23.73;;;19.30;99.90;;;;;;5022278;28;46962;-76
2023/09/18 01:31:54;;;;;;;22.98;20.52;;;19.30;99.90;;;;;;5025381;28;37867;-77
2023/09/18 01:34:23;;;;;;;30.90;23.23;;;19.30;99.90;;;;;;5026139;28;37754;-76
2023/09/18 01:36:51;;;;;;;27.33;22.40;;;19.30;99.90;;;;;;5038674;28;39875;-76
2023/09/18 01:39:17;;;;;;;24.98;21.27;;;19.30;99.90;;;;;;5024888;28;37408;-76
2023/09/18 01:41:44;;;;;;;25.48;22.77;;;19.30;99.90;;;;;;5023261;28;38231;-75
2023/09/18 01:44:10;;;;;;;23.70;21.10;;;19.30;99.90;;;;;;5039462;28;37701;-75
2023/09/18 01:46:36;;;;;;;24.50;21.10;;;19.30;99.90;;;;;;5026695;28;37776;-76
2023/09/18 01:49:03;;;;;;;23.85;20.10;;;19.30;99.90;;;;;;5042265;28;38398;-76
2023/09/18 01:51:32;;;;;;;25.00;20.40;;;19.30;99.90;;;;;;5044071;28;37935;-76
2023/09/18 01:53:58;;;;;;;24.45;20.42;;;19.30;99.90;;;;;;5024981;28;38535;-76
2023/09/18 01:56:24;;;;;;;23.98;20.42;;;19.40;99.90;;;;;;5024389;28;38719;-76
2023/09/18 01:58:50;;;;;;;27.08;20.05;;;19.40;99.90;;;;;;5045702;28;38661;-76
2023/09/18 02:01:16;;;;;;;25.98;22.13;;;19.40;99.90;;;;;;5022793;28;37469;-77
2023/09/18 02:03:42;;;;;;;23.23;19.85;;;19.40;99.90;;;;;;5024772;28;36757;-76
2023/09/18 02:06:09;;;;;;;23.88;20.38;;;19.40;99.90;;;;;;5048350;28;39470;-76
2023/09/18 02:08:35;;;;;;;25.15;20.85;;;19.40;99.90;;;;;;5043427;28;39557;-76
2023/09/18 02:11:02;;;;;;;21.42;18.83;;;19.40;99.90;;;;;;5036585;28;37150;-75
2023/09/18 02:13:29;;;;;;;19.15;17.10;;;19.40;99.90;;;;;;5028688;28;37921;-76
2023/09/18 02:15:55;;;;;;;23.30;19.58;;;19.40;99.90;;;;;;5044142;28;38903;-76
2023/09/18 02:18:21;;;;;;;26.52;20.20;;;19.50;99.90;;;;;;5035200;28;39390;-75
2023/09/18 02:20:48;;;;;;;20.60;18.40;;;19.50;99.90;;;;;;5044257;28;37838;-75
2023/09/18 02:23:15;;;;;;;21.30;18.92;;;19.50;99.90;;;;;;5047301;28;37208;-75
2023/09/18 02:25:42;;;;;;;22.90;19.52;;;19.50;99.90;;;;;;5043679;28;39607;-75
2023/09/18 02:28:08;;;;;;;23.38;19.10;;;19.50;99.90;;;;;;5040407;28;39078;-76
2023/09/18 02:30:34;;;;;;;24.58;19.92;;;19.50;99.90;;;;;;5040001;28;37963;-76
2023/09/18 02:33:03;;;;;;;21.35;19.15;;;19.50;99.90;;;;;;5040859;28;37590;-76
2023/09/18 02:35:30;;;;;;;19.45;17.27;;;19.50;99.90;;;;;;5044606;28;48570;-75
2023/09/18 02:37:56;;;;;;;19.42;17.27;;;19.50;99.90;;;;;;5042655;28;38039;-76
2023/09/18 02:40:22;;;;;;;23.13;19.73;;;19.50;99.90;;;;;;5033186;28;38007;-76
2023/09/18 02:42:48;;;;;;;21.10;18.85;;;19.50;99.90;;;;;;5024108;28;36880;-76
2023/09/18 02:45:14;;;;;;;21.08;18.50;;;19.50;99.90;;;;;;5030838;28;37559;-75
2023/09/18 02:47:42;;;;;;;20.67;18.58;;;19.50;99.90;;;;;;5024756;28;37354;-75
2023/09/18 02:50:08;;;;;;;20.15;18.02;;;19.50;99.90;;;;;;5027612;28;37033;-75
2023/09/18 02:52:34;;;;;;;19.95;17.83;;;19.50;99.90;;;;;;5027854;28;39373;-76
2023/09/18 02:55:00;;;;;;;26.23;22.05;;;19.40;99.90;;;;;;5028127;28;37671;-75
2023/09/18 02:57:26;;;;;;;25.50;19.35;;;19.30;99.90;;;;;;5046598;28;39555;-75
2023/09/18 02:59:52;;;;;;;20.67;18.02;;;19.30;99.90;;;;;;5041454;28;38265;-75
2023/09/18 03:02:18;;;;;;;19.02;16.80;;;19.30;99.90;;;;;;5029580;28;36481;-76
2023/09/18 03:04:44;;;;;;;18.30;16.40;;;19.30;99.90;;;;;;5027713;28;37433;-76
2023/09/18 03:07:13;;;;;;;21.23;18.50;;;19.40;99.90;;;;;;5026305;28;37956;-76
2023/09/18 03:09:39;;;;;;;23.50;18.42;;;19.40;99.90;;;;;;5050238;28;38406;-76
2023/09/18 03:12:05;;;;;;;20.23;17.48;;;19.30;99.90;;;;;;5052127;28;38337;-77
2023/09/18 03:14:31;;;;;;;26.02;18.85;;;19.30;99.90;;;;;;5033546;28;37533;-79
2023/09/18 03:16:57;;;;;;;30.35;20.52;;;19.30;99.90;;;;;;5044617;28;38378;-81
2023/09/18 03:19:24;;;;;;;27.65;19.95;;;19.30;99.90;;;;;;5034481;28;38305;-80
2023/09/18 03:21:50;;;;;;;22.42;19.52;;;19.40;99.90;;;;;;5027657;28;37622;-80
2023/09/18 03:24:16;;;;;;;28.75;19.50;;;19.40;99.90;;;;;;5032217;28;39365;-81
2023/09/18 03:26:42;;;;;;;26.33;20.52;;;19.40;99.90;;;;;;5032877;28;37990;-82
2023/09/18 03:29:08;;;;;;;28.80;21.75;;;19.40;99.90;;;;;;5036684;28;36941;-83
2023/09/18 03:31:35;;;;;;;25.17;19.30;;;19.40;99.90;;;;;;5027751;28;37264;-82
2023/09/18 03:34:01;;;;;;;28.20;20.83;;;19.40;99.90;;;;;;5029034;28;37947;-82
2023/09/18 03:36:27;;;;;;;39.38;22.05;;;19.50;99.90;;;;;;5043468;28;47858;-83
2023/09/18 03:38:53;;;;;;;28.00;21.13;;;19.50;99.90;;;;;;5045300;28;37831;-83
2023/09/18 03:41:19;;;;;;;34.63;24.25;;;19.40;99.90;;;;;;5032389;28;36954;-82
2023/09/18 03:43:45;;;;;;;26.35;21.15;;;19.50;99.90;;;;;;5036242;28;37538;-82
2023/09/18 03:46:12;;;;;;;38.42;25.48;;;19.50;99.90;;;;;;5019381;28;37253;-82
2023/09/18 03:48:38;;;;;;;32.33;22.42;;;19.40;99.90;;;;;;5047353;28;39130;-81
2023/09/18 03:51:08;;;;;;;23.65;18.48;;;19.50;99.90;;;;;;5047681;28;37519;-82
2023/09/18 03:53:34;;;;;;;31.23;22.92;;;19.40;99.90;;;;;;5035147;28;38024;-82
2023/09/18 03:56:00;;;;;;;20.55;17.23;;;19.50;99.90;;;;;;5035264;28;37374;-81
2023/09/18 03:58:26;;;;;;;23.27;18.52;;;19.50;99.90;;;;;;5035967;28;36657;-82
2023/09/18 04:00:53;;;;;;;29.95;21.42;;;19.50;99.90;;;;;;5037614;28;36953;-81
2023/09/18 04:03:19;;;;;;;19.02;17.02;;;19.50;99.90;;;;;;5045158;28;38941;-80
2023/09/18 04:05:45;;;;;;;24.48;16.90;;;19.50;99.90;;;;;;5023459;28;38558;-80
2023/09/18 04:08:12;;;;;;;22.95;20.08;;;19.50;99.90;;;;;;5027942;28;37093;-80
2023/09/18 04:10:38;;;;;;;30.55;19.10;;;19.50;99.90;;;;;;5054042;28;37246;-80
2023/09/18 04:13:04;;;;;;;23.45;19.17;;;19.50;99.90;;;;;;5059790;28;39650;-80
2023/09/18 04:15:30;;;;;;;23.85;19.10;;;19.40;99.90;;;;;;5052784;28;38564;-80
2023/09/18 04:17:56;;;;;;;19.52;17.25;;;19.40;99.90;;;;;;5047100;28;37577;-80
2023/09/18 04:20:23;;;;;;;18.20;16.33;;;19.40;99.90;;;;;;5048731;28;37366;-79
2023/09/18 04:23:19;;;;;;;19.98;16.10;;;19.40;99.90;;;;;;5028852;28;39460;-80
2023/09/18 04:25:46;;;;;;;27.27;19.08;;;19.40;99.90;;;;;;5048539;28;48688;-80
2023/09/18 04:28:13;;;;;;;27.75;17.48;;;19.40;99.90;;;;;;5036305;28;38148;-80
2023/09/18 04:30:40;;;;;;;26.35;18.30;;;19.30;99.90;;;;;;5030635;28;37913;-80
2023/09/18 04:33:06;;;;;;;16.33;14.30;;;19.30;99.90;;;;;;5041080;28;38998;-80
2023/09/18 04:35:32;;;;;;;25.33;18.55;;;19.30;99.90;;;;;;5047527;28;39290;-80
2023/09/18 04:37:59;;;;;;;21.02;15.15;;;19.30;99.90;;;;;;5024132;28;37859;-80
2023/09/18 04:40:32;;;;;;;17.05;15.35;;;19.30;99.90;;;;;;5042461;28;37688;-80
2023/09/18 04:42:58;;;;;;;24.95;18.92;;;19.30;99.90;;;;;;5035569;28;37588;-80
2023/09/18 04:45:25;;;;;;;20.58;14.85;;;19.30;99.90;;;;;;5038543;28;37342;-81
2023/09/18 04:47:52;;;;;;;16.85;15.15;;;19.30;99.90;;;;;;5044572;28;38439;-80
2023/09/18 04:50:19;;;;;;;26.60;18.23;;;19.30;99.90;;;;;;5039452;28;37268;-79
2023/09/18 04:52:45;;;;;;;22.02;17.40;;;19.30;99.90;;;;;;5031232;28;37584;-80
2023/09/18 04:55:12;;;;;;;22.25;16.90;;;19.30;99.90;;;;;;5024575;28;38257;-80
2023/09/18 04:57:38;;;;;;;23.20;17.08;;;19.30;99.90;;;;;;5027988;28;37157;-79
2023/09/18 05:00:12;;;;;;;15.23;13.18;;;19.30;99.90;;;;;;5029466;28;36809;-80
2023/09/18 05:02:39;;;;;;;17.27;13.30;;;19.30;99.90;;;;;;5042446;28;39386;-81
2023/09/18 05:05:06;;;;;;;20.02;15.68;;;19.30;99.90;;;;;;5022649;28;38505;-78
2023/09/18 05:07:32;;;;;;;17.13;14.20;;;19.20;99.90;;;;;;5024895;28;38274;-80
2023/09/18 05:09:58;;;;;;;17.02;12.50;;;19.20;99.90;;;;;;5040407;28;38120;-76
2023/09/18 05:12:24;;;;;;;17.95;14.02;;;19.20;99.90;;;;;;5040138;28;38883;-76
2023/09/18 05:14:51;;;;;;;18.85;16.10;;;19.20;99.90;;;;;;5030782;28;36445;-79
2023/09/18 05:17:18;;;;;;;19.90;14.85;;;19.20;99.90;;;;;;5037960;28;37883;-77
2023/09/18 05:19:44;;;;;;;19.75;15.15;;;19.20;99.90;;;;;;5038779;28;38481;-75
2023/09/18 05:22:11;;;;;;;17.48;13.30;;;19.20;99.90;;;;;;5042259;28;39035;-78
2023/09/18 05:24:38;;;;;;;17.75;14.77;;;19.20;99.90;;;;;;5025858;28;38754;-79
2023/09/18 05:27:07;;;;;;;19.35;14.48;;;19.20;99.90;;;;;;5047285;28;37049;-76
2023/09/18 05:29:36;;;;;;;21.60;16.08;;;19.20;99.90;;;;;;5028504;28;36786;-77
2023/09/18 05:32:02;;;;;;;22.40;17.10;;;19.20;99.90;;;;;;5026567;28;37664;-73
2023/09/18 05:34:28;;;;;;;24.25;17.30;;;19.30;99.90;;;;;;5041267;28;37456;-77
2023/09/18 05:36:54;;;;;;;16.70;13.25;;;19.20;99.90;;;;;;5027405;28;37928;-78
2023/09/18 05:39:20;;;;;;;20.27;14.95;;;19.20;99.90;;;;;;5024887;28;38036;-80
2023/09/18 05:41:46;;;;;;;27.30;17.63;;;19.20;99.90;;;;;;5016874;28;37360;-78
2023/09/18 05:44:12;;;;;;;17.40;14.52;;;19.20;99.90;;;;;;5016211;28;37936;-78
2023/09/18 05:46:38;;;;;;;14.45;12.18;;;19.20;99.90;;;;;;5033110;28;38134;-75
2023/09/18 05:49:04;;;;;;;14.30;11.32;;;19.10;99.90;;;;;;5031279;28;38447;-81
2023/09/18 05:51:32;;;;;;;19.65;13.15;;;19.10;99.90;;;;;;5051614;28;38559;-81
2023/09/18 05:53:58;;;;;;;21.92;15.32;;;19.00;99.90;;;;;;5051081;28;38165;-81
2023/09/18 05:56:25;;;;;;;24.70;14.75;;;19.00;99.90;;;;;;5030434;28;37066;-81
2023/09/18 05:58:51;;;;;;;14.60;10.85;;;19.00;99.90;;;;;;5044364;28;38224;-81
2023/09/18 06:01:17;;;;;;;17.52;12.20;;;19.00;99.90;;;;;;5028156;28;38563;-81
2023/09/18 06:03:43;;;;;;;13.77;10.23;;;19.00;99.90;;;;;;5027644;28;37297;-80
2023/09/18 06:06:09;;;;;;;17.38;12.70;;;18.90;99.90;;;;;;5045110;28;38695;-81
2023/09/18 06:08:35;;;;;;;12.77;10.00;;;18.90;99.90;;;;;;5049006;28;37089;-81
2023/09/18 06:11:01;;;;;;;19.83;12.00;;;18.90;99.90;;;;;;5026770;28;39117;-81
2023/09/18 06:13:28;;;;;;;19.30;12.13;;;18.80;99.90;;;;;;5025452;28;46444;-81
2023/09/18 06:15:55;;;;;;;15.55;11.68;;;18.80;99.90;;;;;;5052424;28;38244;-81
2023/09/18 06:18:23;;;;;;;15.95;12.43;;;18.80;99.90;;;;;;5042811;28;37772;-81
2023/09/18 06:20:49;;;;;;;20.42;12.77;;;18.80;99.90;;;;;;5049022;28;38881;-81
2023/09/18 06:23:15;;;;;;;11.13;9.50;;;18.80;99.90;;;;;;5024254;28;37280;-81
2023/09/18 06:25:43;;;;;;;18.95;13.02;;;18.70;99.90;;;;;;5028298;28;36963;-81
2023/09/18 06:28:10;;;;;;;14.60;10.40;;;18.70;99.90;;;;;;5023185;28;35951;-82
2023/09/18 06:30:36;;;;;;;14.02;12.05;;;18.70;99.90;;;;;;5035743;28;37658;-82
2023/09/18 06:33:03;;;;;;;12.93;9.15;;;18.70;99.90;;;;;;5031528;28;37578;-82
2023/09/18 06:35:30;;;;;;;12.50;9.25;;;18.80;99.90;;;;;;5025277;28;37455;-82
2023/09/18 06:37:58;;;;;;;11.45;8.82;;;18.80;99.90;;;;;;5045556;28;37389;-82
2023/09/18 06:40:25;;;;;;;20.15;11.07;;;18.70;99.90;;;;;;5041340;28;38997;-81
2023/09/18 06:42:54;;;;;;;12.05;9.13;;;18.70;99.90;;;;;;5025598;28;37581;-80
2023/09/18 06:45:20;;;;;;;12.25;8.13;;;18.60;99.90;;;;;;5027319;28;37066;-81
2023/09/18 06:47:46;;;;;;;12.18;7.03;;;18.60;99.90;;;;;;5038000;28;37906;-81
2023/09/18 06:50:12;;;;;;;11.52;7.60;;;18.60;99.90;;;;;;5044611;28;39346;-81
2023/09/18 06:52:39;;;;;;;11.60;6.95;;;18.60;99.90;;;;;;5029889;28;36982;-79
2023/09/18 06:55:05;;;;;;;8.57;5.80;;;18.50;99.90;;;;;;5043127;28;37511;-80
2023/09/18 06:57:31;;;;;;;9.23;6.28;;;18.60;99.90;;;;;;5018457;28;48222;-79
2023/09/18 06:59:57;;;;;;;8.02;5.80;;;18.50;99.90;;;;;;5033507;28;39071;-80
2023/09/18 07:02:23;;;;;;;11.20;5.43;;;18.50;99.90;;;;;;5021552;28;38350;-80
2023/09/18 07:04:49;;;;;;;9.07;5.78;;;18.50;99.90;;;;;;5035265;28;37087;-78
2023/09/18 07:07:15;;;;;;;9.20;5.40;;;18.50;99.90;;;;;;5025306;28;35937;-78
2023/09/18 07:09:42;;;;;;;9.15;5.25;;;18.50;99.90;;;;;;5027252;28;41620;-81
2023/09/18 07:12:11;;;;;;;6.22;5.13;;;18.50;99.90;;;;;;5019533;28;38648;-82
2023/09/18 07:14:37;;;;;;;10.32;5.38;;;18.50;99.90;;;;;;5047272;28;38786;-81
2023/09/18 07:17:04;;;;;;;10.60;5.07;;;18.50;99.90;;;;;;5029493;28;35983;-81
2023/09/18 07:19:30;;;;;;;10.75;5.50;;;18.60;99.90;;;;;;5026821;28;37306;-82
2023/09/18 07:21:56;;;;;;;7.97;5.25;;;18.60;99.90;;;;;;5046705;28;39028;-81
2023/09/18 07:24:22;;;;;;;9.63;5.03;;;18.60;99.90;;;;;;5050389;28;37864;-82
2023/09/18 07:26:48;;;;;;;11.38;5.68;;;18.60;99.90;;;;;;5032407;28;36084;-82
2023/09/18 07:29:15;;;;;;;8.45;5.18;;;18.60;99.90;;;;;;5048549;28;38547;-81
2023/09/18 07:31:42;;;;;;;8.48;5.53;;;18.60;99.90;;;;;;5027272;28;37581;-82
2023/09/18 07:34:09;;;;;;;8.63;5.43;;;18.60;99.90;;;;;;5046835;28;38191;-82
2023/09/18 07:36:36;;;;;;;10.20;6.47;;;18.60;99.90;;;;;;5040722;28;37393;-81
2023/09/18 07:39:04;;;;;;;11.95;6.65;;;18.60;99.90;;;;;;5054382;28;39905;-82
2023/09/18 07:41:31;;;;;;;10.95;6.45;;;18.50;99.90;;;;;;5022887;28;37611;-86
2023/09/18 07:43:58;;;;;;;10.85;7.38;;;18.60;99.90;;;;;;5022163;28;37334;-82
2023/09/18 07:46:25;;;;;;;8.07;6.80;;;18.60;99.90;;;;;;5039378;28;37999;-81
2023/09/18 07:48:51;;;;;;;9.52;7.32;;;18.70;99.90;;;;;;5042388;28;39013;-80
2023/09/18 07:51:17;;;;;;;12.55;7.28;;;18.70;99.90;;;;;;5034536;28;38618;-81
2023/09/18 07:53:44;;;;;;;10.63;7.47;;;18.80;99.90;;;;;;5025772;28;38454;-82
2023/09/18 07:56:10;;;;;;;12.75;7.45;;;18.80;99.90;;;;;;5025581;28;36113;-82
2023/09/18 07:58:38;;;;;;;9.82;7.35;;;18.90;99.90;;;;;;5027575;28;37619;-80
2023/09/18 08:01:09;;;;;;;12.70;8.25;;;18.90;99.90;;;;;;5033270;28;38625;-82
2023/09/18 08:03:36;;;;;;;14.40;9.03;;;18.90;99.90;;;;;;5024887;28;38341;-83
2023/09/18 08:06:04;;;;;;;10.85;7.85;;;18.90;99.90;;;;;;5021207;28;36901;-80
2023/09/18 08:08:32;;;;;;;10.98;8.07;;;19.00;99.90;;;;;;5028335;28;37670;-82
2023/09/18 08:11:01;;;;;;;10.32;8.27;;;19.10;99.90;;;;;;5028700;28;38327;-81
2023/09/18 08:13:28;;;;;;;10.13;7.93;;;19.20;99.90;;;;;;5031829;28;37207;-79
2023/09/18 08:15:57;;;;;;;12.90;8.77;;;19.30;99.90;;;;;;5040410;28;38188;-79
2023/09/18 08:18:26;;;;;;;12.13;8.18;;;19.30;99.90;;;;;;5024816;28;37645;-80
2023/09/18 08:20:54;;;;;;;10.57;7.80;;;19.50;99.90;;;;;;5040173;28;39189;-82
2023/09/18 08:23:20;;;;;;;11.38;7.15;;;19.60;99.90;;;;;;5043366;28;38321;-82
2023/09/18 08:25:47;;;;;;;11.57;8.05;;;19.60;99.90;;;;;;5045570;28;37136;-80
2023/09/18 08:28:15;;;;;;;11.20;7.43;;;19.90;99.90;;;;;;5044546;28;38673;-79
2023/09/18 08:30:44;;;;;;;9.95;6.43;;;19.90;99.90;;;;;;5043197;28;39432;-77
2023/09/18 08:33:11;;;;;;;11.30;6.85;;;19.80;99.90;;;;;;5025715;28;37757;-76
2023/09/18 08:35:37;;;;;;;10.20;6.55;;;19.80;99.90;;;;;;5027462;28;36941;-76
2023/09/18 08:38:04;;;;;;;8.38;6.63;;;19.80;99.90;;;;;;5024956;28;37971;-78
2023/09/18 08:40:30;;;;;;;8.52;6.05;;;19.90;99.90;;;;;;5048878;28;38700;-78
2023/09/18 08:43:00;;;;;;;12.32;6.18;;;19.70;99.90;;;;;;5023984;28;36971;-77
2023/09/18 08:45:50;;;;;;;9.73;6.15;;;19.70;99.90;;;;;;5048299;28;37170;-77
2023/09/18 08:48:16;;;;;;;8.27;6.75;;;19.60;99.90;;;;;;5026934;28;38753;-77
2023/09/18 08:50:44;;;;;;;7.53;4.60;;;19.50;99.90;;;;;;5038387;28;38903;-78
2023/09/18 08:53:11;;;;;;;10.10;4.63;;;19.40;99.90;;;;;;5029509;28;36686;-78
2023/09/18 08:55:37;;;;;;;4.68;3.40;;;19.40;99.90;;;;;;5020479;28;36287;-78
2023/09/18 08:58:05;;;;;;;4.60;3.33;;;19.30;99.90;;;;;;5018557;28;39162;-74
2023/09/18 09:00:35;;;;;;;5.35;3.42;;;19.20;99.90;;;;;;5048094;28;36911;-75
2023/09/18 09:03:02;;;;;;;5.32;4.07;;;19.20;99.90;;;;;;5045984;28;38104;-76
2023/09/18 09:05:29;;;;;;;5.82;3.90;;;19.20;99.90;;;;;;5024338;28;46205;-76
2023/09/18 09:07:55;;;;;;;4.43;4.03;;;19.20;99.90;;;;;;5045701;28;39305;-76
2023/09/18 09:10:21;;;;;;;5.13;4.40;;;19.10;99.90;;;;;;5046134;28;38512;-76
2023/09/18 09:12:57;;;;;;;6.03;4.70;;;19.20;99.90;;;;;;5045760;28;37064;-75
2023/09/18 09:15:35;;;;;;;7.32;4.63;;;19.20;99.90;;;;;;5061329;28;37593;-76
2023/09/18 09:18:06;;;;;;;7.85;5.03;;;19.40;99.90;;;;;;5052405;28;39876;-75
2023/09/18 09:20:33;;;;;;;6.80;5.10;;;19.40;99.90;;;;;;5045729;28;48909;-78
2023/09/18 09:23:03;;;;;;;6.18;4.68;;;19.40;99.90;;;;;;5030047;28;35867;-73
2023/09/18 09:25:31;;;;;;;6.45;4.55;;;19.30;99.90;;;;;;5044587;28;48176;-74
2023/09/18 09:28:06;;;;;;;8.38;5.45;;;19.40;99.90;;;;;;5034301;28;38227;-74
2023/09/18 09:30:35;;;;;;;9.90;5.32;;;19.30;99.90;;;;;;5048510;28;48867;-73
2023/09/18 09:33:04;;;;;;;7.60;5.00;;;19.30;99.90;;;;;;5029439;28;38468;-73
2023/09/18 09:35:34;;;;;;;6.38;5.82;;;19.40;99.90;;;;;;5024849;28;36483;-73
2023/09/18 09:38:07;;;;;;;7.40;5.55;;;19.40;99.90;;;;;;5041302;28;39091;-75
2023/09/18 09:40:35;;;;;;;7.53;5.75;;;19.50;99.90;;;;;;5051117;28;48261;-74
2023/09/18 09:43:04;;;;;;;7.72;5.63;;;19.70;99.90;;;;;;5035886;28;37265;-73
2023/09/18 09:45:38;;;;;;;9.35;4.60;;;19.90;99.90;;;;;;5054336;28;49144;-75
2023/09/18 09:48:06;;;;;;;6.57;4.50;;;20.00;99.90;;;;;;5049804;28;38880;-74
2023/09/18 09:50:33;;;;;;;5.05;4.13;;;20.30;99.90;;;;;;5036346;28;37288;-74
2023/09/18 09:53:00;;;;;;;10.60;4.00;;;20.50;99.90;;;;;;5047537;28;37750;-74
2023/09/18 09:55:33;;;;;;;9.43;3.65;;;20.80;99.90;;;;;;5031088;28;36791;-73
2023/09/18 09:58:02;;;;;;;4.80;3.53;;;21.00;99.90;;;;;;5042623;28;38952;-73
2023/09/18 10:00:45;;;;;;;6.80;3.78;;;20.90;99.90;;;;;;5037288;28;47047;-73
2023/09/18 10:03:14;;;;;;;4.18;3.05;;;20.90;99.90;;;;;;5046907;28;37784;-74
2023/09/18 10:05:43;;;;;;;4.75;3.90;;;21.00;99.90;;;;;;5044942;28;37535;-74
2023/09/18 10:08:15;;;;;;;8.00;3.72;;;21.10;99.90;;;;;;5040378;28;37989;-74
2023/09/18 10:10:53;;;;;;;6.20;3.60;;;20.90;99.90;;;;;;5022796;28;39672;-74
2023/09/18 10:13:22;;;;;;;9.18;3.65;;;20.80;99.90;;;;;;5057226;28;37887;-73
2023/09/18 10:15:50;;;;;;;5.28;4.03;;;20.70;99.90;;;;;;5048154;28;35972;-73
2023/09/18 10:18:18;;;;;;;4.63;2.90;;;20.80;99.90;;;;;;5043403;28;37854;-73
2023/09/18 10:20:46;;;;;;;5.30;3.47;;;20.80;99.90;;;;;;5031259;28;37340;-73
2023/09/18 10:23:39;;;;;;;7.75;3.42;;;20.70;99.90;;;;;;5046966;28;38026;-73
2023/09/18 10:26:07;;;;;;;4.35;3.13;;;20.60;99.90;;;;;;5060991;28;37150;-72
2023/09/18 10:28:34;;;;;;;7.38;3.28;;;20.80;99.90;;;;;;5052948;28;39324;-72
2023/09/18 10:31:01;;;;;;;4.55;2.75;;;21.10;99.90;;;;;;5057813;28;38495;-73
2023/09/18 10:33:28;;;;;;;6.15;3.33;;;21.30;99.90;;;;;;5041622;28;46827;-73
2023/09/18 10:35:56;;;;;;;4.40;2.80;;;21.20;99.90;;;;;;5040819;28;36502;-73
2023/09/18 10:38:24;;;;;;;3.63;3.05;;;21.50;99.90;;;;;;5051332;28;39649;-73
2023/09/18 10:40:52;;;;;;;4.55;2.88;;;21.70;99.90;;;;;;5032489;28;38036;-73
2023/09/18 10:43:18;;;;;;;4.82;2.90;;;21.90;99.90;;;;;;5050621;28;38571;-72
2023/09/18 10:45:45;;;;;;;9.52;2.88;;;21.90;99.90;;;;;;5043808;28;36014;-73
2023/09/18 10:48:13;;;;;;;5.60;2.92;;;21.80;99.90;;;;;;5020032;28;38001;-77
2023/09/18 10:50:42;;;;;;;6.68;3.20;;;21.60;99.90;;;;;;5027675;28;38358;-75
2023/09/18 10:53:08;;;;;;;5.13;3.00;;;21.20;99.90;;;;;;5043838;28;38802;-73
2023/09/18 10:55:36;;;;;;;2.78;2.33;;;21.10;99.90;;;;;;5040984;28;38265;-72
2023/09/18 10:58:02;;;;;;;3.47;2.40;;;21.00;99.90;;;;;;5022824;28;37588;-72
2023/09/18 11:00:31;;;;;;;4.03;3.20;;;20.80;99.90;;;;;;5047545;28;39248;-72
2023/09/18 11:03:17;;;;;;;4.90;3.40;;;20.70;99.90;;;;;;5030225;28;38821;-72
2023/09/18 11:05:47;;;;;;;7.78;3.80;;;20.60;99.90;;;;;;5027785;28;47033;-72
2023/09/18 11:08:34;;;;;;;8.35;4.80;;;20.70;99.90;;;;;;5041258;28;37580;-73
2023/09/18 11:11:04;;;;;;;8.13;4.55;;;20.70;99.90;;;;;;5041588;28;38305;-72
2023/09/18 11:13:42;;;;;;;6.78;4.68;;;21.10;99.90;;;;;;5044845;28;47264;-71
2023/09/18 11:16:27;;;;;;;7.32;5.10;;;21.00;99.90;;;;;;5030777;28;36455;-72
2023/09/18 11:19:17;;;;;;;7.20;4.93;;;21.00;99.90;;;;;;5055861;28;38488;-72
2023/09/18 11:21:45;;;;;;;6.07;4.85;;;20.90;99.90;;;;;;5032791;28;48234;-72
2023/09/18 11:24:21;;;;;;;6.40;4.70;;;20.70;99.90;;;;;;5046744;28;38156;-72
2023/09/18 11:26:49;;;;;;;8.48;5.43;;;21.00;99.90;;;;;;5046409;28;37117;-72
2023/09/18 11:29:22;;;;;;;9.48;4.38;;;21.20;99.90;;;;;;5034348;28;37546;-72
2023/09/18 11:31:54;;;;;;;5.82;4.15;;;21.70;99.90;;;;;;5029809;28;37481;-76
2023/09/18 11:34:23;;;;;;;4.45;3.97;;;22.00;99.90;;;;;;5023375;28;38478;-77
2023/09/18 11:36:50;;;;;;;3.70;3.30;;;21.80;99.90;;;;;;5033862;28;38125;-74
2023/09/18 11:39:39;;;;;;;6.75;3.60;;;21.60;99.90;;;;;;5026104;28;37663;-74
2023/09/18 11:42:09;;;;;;;5.38;3.70;;;21.60;99.90;;;;;;5050198;28;39334;-75
2023/09/18 11:44:40;;;;;;;8.48;4.00;;;21.90;99.90;;;;;;5044035;28;37656;-74
2023/09/18 11:47:21;;;;;;;5.13;4.07;;;22.20;99.90;;;;;;5045048;28;37484;-75
2023/09/18 11:49:54;;;;;;;4.55;3.75;;;22.40;99.90;;;;;;5050203;28;37299;-74
2023/09/18 11:52:27;;;;;;;8.85;3.97;;;22.60;99.90;;;;;;5040601;28;38926;-75
2023/09/18 11:54:55;;;;;;;8.35;3.42;;;22.70;99.90;;;;;;5031575;28;36718;-75
2023/09/18 11:57:21;;;;;;;10.15;3.63;;;22.60;99.90;;;;;;5046365;28;37054;-75
2023/09/18 11:59:50;;;;;;;7.20;3.38;;;22.40;99.90;;;;;;5035651;28;37055;-75
2023/09/18 12:02:27;;;;;;;6.00;3.22;;;22.40;99.90;;;;;;5027057;28;38522;-75
2023/09/18 12:04:54;;;;;;;5.88;3.45;;;22.20;99.90;;;;;;5043900;28;37617;-75
2023/09/18 12:07:21;;;;;;;10.60;3.70;;;21.90;99.90;;;;;;5046261;28;38729;-75
2023/09/18 12:09:47;;;;;;;9.07;3.97;;;21.80;99.90;;;;;;5040153;28;37586;-75
2023/09/18 12:12:15;;;;;;;8.80;3.53;;;21.90;99.90;;;;;;5053000;28;38890;-76
2023/09/18 12:14:42;;;;;;;7.43;3.83;;;22.10;99.90;;;;;;5027688;28;38527;-76
2023/09/18 12:17:08;;;;;;;5.68;3.25;;;22.00;99.90;;;;;;5026950;28;36415;-77
2023/09/18 12:19:35;;;;;;;6.65;3.47;;;22.10;99.90;;;;;;5028657;28;38814;-77
2023/09/18 12:22:02;;;;;;;6.60;3.40;;;21.90;99.90;;;;;;5044930;28;38083;-76
2023/09/18 12:24:28;;;;;;;8.60;3.90;;;21.80;99.90;;;;;;5049019;28;48479;-75
2023/09/18 12:26:54;;;;;;;9.25;3.83;;;22.00;99.90;;;;;;5032256;28;36497;-75
2023/09/18 12:29:21;;;;;;;6.60;3.47;;;22.10;99.90;;;;;;5051438;28;38651;-74
2023/09/18 12:31:50;;;;;;;9.55;2.95;;;22.10;99.90;;;;;;5047649;28;38224;-75
2023/09/18 12:34:23;;;;;;;7.95;3.25;;;22.10;99.90;;;;;;5028787;28;38326;-75
2023/09/18 12:36:50;;;;;;;5.70;3.45;;;22.10;99.90;;;;;;5030061;28;37505;-75
2023/09/18 12:39:17;;;;;;;5.93;3.30;;;22.10;99.90;;;;;;5045305;28;39005;-75